Time;durP1;ratioP1;P1;durP2;ratioP2;P2;SDS_P1;SDS_P2;PMS_P1;PMS_P2;Temp;Humidity;BMP_temperature;BMP_pressure;BME280_temperature;BME280_humidity;BME280_pressure;Samples;Min_cycle;Max_cycle;Signal;HPM_P1;HPM_P2
2023/08/15 00:08:37;;;;;;;;;;;19.90;99.90;;;;;;20782478;28;19917;-81
2023/08/15 00:18:38;;;;;;;;;;;20.00;99.90;;;;;;20797943;28;19968;-82
2023/08/15 00:28:39;;;;;;;;;;;20.20;99.90;;;;;;20799007;28;19925;-82
2023/08/15 00:38:40;;;;;;;;;;;20.20;99.90;;;;;;20801659;28;19948;-81
2023/08/15 00:48:40;;;;;;;;;;;20.10;99.90;;;;;;20801788;28;19917;-82
2023/08/15 00:58:42;;;;;;;;;;;19.70;99.90;;;;;;20792628;28;20394;-81
2023/08/15 01:08:42;;;;;;;;;;;19.90;99.90;;;;;;20804210;28;19917;-80
2023/08/15 01:18:45;;;;;;;;;;;19.80;99.90;;;;;;20827183;28;19920;-81
2023/08/15 01:28:46;;;;;;;;;;;19.60;99.90;;;;;;20786063;28;19917;-81
2023/08/15 01:38:55;;;;;;;;;;;20.00;99.90;;;;;;20891465;22;19970;-75
2023/08/15 01:48:57;;;;;;;;;;;20.00;99.90;;;;;;20920071;28;20290;-74
2023/08/15 01:58:58;;;;;;;;;;;20.30;99.90;;;;;;20920648;28;20012;-75
2023/08/15 02:08:59;;;;;;;;;;;20.30;99.90;;;;;;20910147;28;19963;-75
2023/08/15 02:18:59;;;;;;;;;;;20.20;99.90;;;;;;20895921;28;19921;-74
2023/08/15 02:29:00;;;;;;;;;;;20.10;99.90;;;;;;20897473;28;19921;-74
2023/08/15 02:39:00;;;;;;;;;;;19.80;99.90;;;;;;20904915;28;19916;-75
2023/08/15 02:49:03;;;;;;;;;;;19.90;99.90;;;;;;20905765;28;20306;-75
2023/08/15 02:59:04;;;;;;;;;;;20.00;99.90;;;;;;20884290;28;19920;-76
2023/08/15 03:09:05;;;;;;;;;;;20.00;99.90;;;;;;20891410;28;20033;-75
2023/08/15 03:19:05;;;;;;;;;;;19.80;99.90;;;;;;20883046;28;19916;-75
2023/08/15 03:29:06;;;;;;;;;;;19.80;99.90;;;;;;20892425;28;19923;-75
2023/08/15 03:39:07;;;;;;;;;;;19.80;99.90;;;;;;20899839;28;19917;-75
2023/08/15 03:49:09;;;;;;;;;;;20.00;99.90;;;;;;20900285;28;19921;-75
2023/08/15 03:59:09;;;;;;;;;;;19.90;99.90;;;;;;20866683;28;20402;-75
2023/08/15 04:09:10;;;;;;;;;;;20.00;99.90;;;;;;20891246;28;19924;-75
2023/08/15 04:19:11;;;;;;;;;;;20.00;99.90;;;;;;20890876;28;19916;-75
2023/08/15 04:29:11;;;;;;;;;;;19.80;99.90;;;;;;20926238;28;19931;-75
2023/08/15 04:39:12;;;;;;;;;;;20.00;99.90;;;;;;20930620;28;20394;-75
2023/08/15 04:49:13;;;;;;;;;;;19.90;99.90;;;;;;20900862;28;20008;-75
2023/08/15 04:59:15;;;;;;;;;;;19.60;99.90;;;;;;20893080;28;20444;-75
2023/08/15 05:09:17;;;;;;;;;;;19.70;99.90;;;;;;20892397;28;20345;-75
2023/08/15 05:19:17;;;;;;;;;;;19.50;99.90;;;;;;20872744;28;20019;-73
2023/08/15 05:29:18;;;;;;;;;;;19.70;99.90;;;;;;20885805;28;20375;-75
2023/08/15 05:39:19;;;;;;;;;;;19.70;99.90;;;;;;20896384;28;20261;-75
2023/08/15 05:49:19;;;;;;;;;;;19.50;99.90;;;;;;20915932;28;19916;-75
2023/08/15 05:59:20;;;;;;;;;;;19.50;99.90;;;;;;20880532;28;19917;-75
2023/08/15 06:09:21;;;;;;;;;;;19.70;99.90;;;;;;20880615;28;19917;-75
2023/08/15 06:19:21;;;;;;;;;;;19.90;99.90;;;;;;20891905;28;19995;-74
2023/08/15 06:29:22;;;;;;;;;;;20.10;99.90;;;;;;20882103;28;19917;-76
2023/08/15 06:39:23;;;;;;;;;;;20.10;99.90;;;;;;20883387;28;19941;-76
2023/08/15 06:49:23;;;;;;;;;;;20.10;99.90;;;;;;20901936;28;19959;-77
2023/08/15 06:59:24;;;;;;;;;;;20.40;99.90;;;;;;20902519;28;19913;-75
2023/08/15 07:09:28;;;;;;;;;;;20.90;99.90;;;;;;20881399;28;19917;-75
2023/08/15 07:19:28;;;;;;;;;;;21.80;99.90;;;;;;20894038;28;19917;-75
2023/08/15 07:29:29;;;;;;;;;;;23.20;99.90;;;;;;20883279;28;20026;-75
2023/08/15 07:39:30;;;;;;;;;;;22.50;99.90;;;;;;20908366;28;20391;-75
2023/08/15 07:49:30;;;;;;;;;;;21.70;99.90;;;;;;20881283;28;19921;-75
2023/08/15 07:59:31;;;;;;;;;;;22.40;99.90;;;;;;20853878;28;19913;-76
2023/08/15 08:09:32;;;;;;;;;;;24.50;99.90;;;;;;20880330;28;19921;-73
2023/08/15 08:19:32;;;;;;;;;;;24.90;99.90;;;;;;20870728;28;20387;-73
2023/08/15 08:29:33;;;;;;;;;;;24.70;99.90;;;;;;20892435;28;19923;-73
2023/08/15 08:39:34;;;;;;;;;;;26.00;99.90;;;;;;20902863;28;20414;-73
2023/08/15 08:49:37;;;;;;;;;;;27.00;99.90;;;;;;20906790;28;19917;-73
2023/08/15 08:59:39;;;;;;;;;;;27.50;99.90;;;;;;20901080;28;20271;-73
2023/08/15 09:09:40;;;;;;;;;;;27.50;99.90;;;;;;20897179;28;19921;-73
2023/08/15 09:19:40;;;;;;;;;;;28.90;99.90;;;;;;20873114;28;20398;-72
2023/08/15 09:29:41;;;;;;;;;;;28.50;99.90;;;;;;20865842;28;19925;-72
2023/08/15 09:39:41;;;;;;;;;;;29.50;99.90;;;;;;20856431;28;19971;-72
2023/08/15 09:49:42;;;;;;;;;;;28.80;99.90;;;;;;20877675;28;19921;-72
2023/08/15 09:59:43;;;;;;;;;;;28.60;99.90;;;;;;20864647;28;19959;-72
2023/08/15 10:09:43;;;;;;;;;;;28.80;99.90;;;;;;20867431;28;19963;-72
2023/08/15 10:19:48;;;;;;;;;;;28.90;99.90;;;;;;20885898;28;20433;-72
2023/08/15 10:29:52;;;;;;;;;;;29.90;99.90;;;;;;20881084;28;19921;-73
2023/08/15 10:40:05;;;;;;;;;;;30.80;99.90;;;;;;20907799;28;20485;-73
2023/08/15 10:50:05;;;;;;;;;;;31.20;99.90;;;;;;20897962;28;20396;-74
2023/08/15 11:00:07;;;;;;;;;;;32.70;99.90;;;;;;20884650;28;20352;-73
2023/08/15 11:10:08;;;;;;;;;;;32.40;99.90;;;;;;20901266;28;19950;-73
2023/08/15 11:20:09;;;;;;;;;;;32.70;99.90;;;;;;20890377;28;19956;-71
2023/08/15 11:30:10;;;;;;;;;;;33.10;99.20;;;;;;20890079;28;19917;-73
2023/08/15 11:40:11;;;;;;;;;;;32.40;99.00;;;;;;20830808;28;20031;-73
2023/08/15 11:50:12;;;;;;;;;;;33.20;98.30;;;;;;20835651;28;19917;-73
2023/08/15 12:00:15;;;;;;;;;;;31.60;99.90;;;;;;20889544;28;20338;-73
2023/08/15 12:10:16;;;;;;;;;;;30.20;99.90;;;;;;20899833;28;19916;-73
2023/08/15 12:20:17;;;;;;;;;;;30.20;99.90;;;;;;20893749;28;20338;-73
2023/08/15 12:30:19;;;;;;;;;;;31.00;99.90;;;;;;20885542;28;20271;-73
2023/08/15 12:40:20;;;;;;;;;;;31.90;97.70;;;;;;20826970;28;20364;-73
2023/08/15 12:50:21;;;;;;;;;;;31.70;98.50;;;;;;20891221;28;19943;-73
2023/08/15 13:00:22;;;;;;;;;;;32.60;97.50;;;;;;20862120;28;19913;-73
2023/08/15 13:10:23;;;;;;;;;;;32.40;97.60;;;;;;20892458;28;19924;-72
2023/08/15 13:20:23;;;;;;;;;;;32.80;95.80;;;;;;20905417;28;19936;-72
2023/08/15 13:30:24;;;;;;;;;;;32.60;96.20;;;;;;20884911;28;19921;-73
2023/08/15 13:40:25;;;;;;;;;;;32.40;95.10;;;;;;20944061;22;19925;-78
2023/08/15 13:50:26;;;;;;;;;;;32.40;95.40;;;;;;21014578;28;19993;-77
2023/08/15 14:00:30;;;;;;;;;;;31.60;94.70;;;;;;21013590;28;20310;-77
2023/08/15 14:10:30;;;;;;;;;;;31.80;99.30;;;;;;21000269;28;20382;-77
2023/08/15 14:20:35;;;;;;;;;;;32.20;96.70;;;;;;20999109;28;20011;-77
2023/08/15 14:30:35;;;;;;;;;;;32.20;94.70;;;;;;21002851;28;20491;-77
2023/08/15 14:40:36;;;;;;;;;;;32.80;94.30;;;;;;21005828;28;19916;-77
2023/08/15 14:50:37;;;;;;;;;;;32.30;94.70;;;;;;21008670;28;19921;-77
2023/08/15 15:00:37;;;;;;;;;;;32.80;93.90;;;;;;20924987;28;20367;-77
2023/08/15 15:10:38;;;;;;;;;;;31.50;95.20;;;;;;20921425;28;19930;-77
2023/08/15 15:20:39;;;;;;;;;;;31.10;96.10;;;;;;20996406;28;20015;-77
2023/08/15 15:30:39;;;;;;;;;;;31.00;99.90;;;;;;20997477;28;20348;-77
2023/08/15 15:40:40;;;;;;;;;;;31.50;99.90;;;;;;20999287;28;20015;-77
2023/08/15 15:50:40;;;;;;;;;;;30.60;99.70;;;;;;21002606;28;19922;-77
2023/08/15 16:00:41;;;;;;;;;;;30.40;99.90;;;;;;21002033;28;19919;-77
2023/08/15 16:10:42;;;;;;;;;;;29.70;99.90;;;;;;20994085;28;20179;-76
2023/08/15 16:20:42;;;;;;;;;;;29.20;99.90;;;;;;20987638;28;19916;-77
2023/08/15 16:30:43;;;;;;;;;;;29.20;99.90;;;;;;20982536;28;20403;-76
2023/08/15 16:40:44;;;;;;;;;;;28.90;99.90;;;;;;20994562;28;19924;-77
2023/08/15 16:50:44;;;;;;;;;;;28.90;99.90;;;;;;20991064;28;19916;-76
2023/08/15 17:00:45;;;;;;;;;;;28.70;99.90;;;;;;20980836;28;20359;-76
2023/08/15 17:10:46;;;;;;;;;;;28.70;99.90;;;;;;20990811;28;20378;-77
2023/08/15 17:20:47;;;;;;;;;;;28.40;99.90;;;;;;20984657;28;19919;-77
2023/08/15 17:30:47;;;;;;;;;;;28.20;99.90;;;;;;20991874;28;19917;-77
2023/08/15 17:40:48;;;;;;;;;;;27.90;99.90;;;;;;20992856;28;19977;-77
2023/08/15 17:50:49;;;;;;;;;;;27.70;99.90;;;;;;20981054;28;19923;-76
2023/08/15 18:00:49;;;;;;;;;;;27.30;99.90;;;;;;20992298;28;19913;-77
2023/08/15 18:10:50;;;;;;;;;;;27.00;99.90;;;;;;20991223;28;19932;-77
2023/08/15 18:20:51;;;;;;;;;;;26.70;99.90;;;;;;20986231;28;19912;-76
2023/08/15 18:30:51;;;;;;;;;;;26.10;99.90;;;;;;20982293;28;19963;-77
2023/08/15 18:40:52;;;;;;;;;;;25.60;99.90;;;;;;20984861;28;20432;-76
2023/08/15 18:50:52;;;;;;;;;;;25.40;99.90;;;;;;20998861;28;19928;-77
2023/08/15 19:00:53;;;;;;;;;;;24.50;99.90;;;;;;20998915;28;19924;-76
2023/08/15 19:10:54;;;;;;;;;;;24.00;99.90;;;;;;21001623;28;19927;-76
2023/08/15 19:20:57;;;;;;;;;;;23.90;99.90;;;;;;20996221;28;19999;-76
2023/08/15 19:30:58;;;;;;;;;;;23.70;99.90;;;;;;20992639;28;19924;-77
2023/08/15 19:40:58;;;;;;;;;;;23.10;99.90;;;;;;20981231;22;19928;-75
2023/08/15 19:50:59;;;;;;;;;;;22.90;99.90;;;;;;20885846;28;20004;-76
2023/08/15 20:01:00;;;;;;;;;;;22.60;99.90;;;;;;20846628;28;19923;-76
2023/08/15 20:11:00;;;;;;;;;;;22.70;99.90;;;;;;20849320;28;20038;-76
2023/08/15 20:21:02;;;;;;;;;;;22.30;99.90;;;;;;20862455;28;20003;-76
2023/08/15 20:31:02;;;;;;;;;;;21.90;99.90;;;;;;20843234;28;19916;-75
2023/08/15 20:41:03;;;;;;;;;;;21.60;99.90;;;;;;20865107;28;20376;-75
2023/08/15 20:51:04;;;;;;;;;;;21.30;99.90;;;;;;20894551;28;19917;-74
2023/08/15 21:01:04;;;;;;;;;;;21.40;99.90;;;;;;20830458;28;19913;-75
2023/08/15 21:11:05;;;;;;;;;;;21.20;99.90;;;;;;20807960;28;20390;-75
2023/08/15 21:21:07;;;;;;;;;;;20.70;99.90;;;;;;20824197;28;19917;-75
2023/08/15 21:31:07;;;;;;;;;;;20.70;99.90;;;;;;20819496;28;19917;-75
2023/08/15 21:41:08;;;;;;;;;;;20.60;99.90;;;;;;20844189;28;19964;-75
2023/08/15 21:51:09;;;;;;;;;;;20.50;99.90;;;;;;20829774;28;19952;-75
2023/08/15 22:01:09;;;;;;;;;;;20.10;99.90;;;;;;20841085;28;20398;-76
2023/08/15 22:11:10;;;;;;;;;;;20.00;99.90;;;;;;20869977;28;19917;-76
2023/08/15 22:21:10;;;;;;;;;;;19.70;99.90;;;;;;20855040;28;19913;-77
2023/08/15 22:31:11;;;;;;;;;;;19.70;99.90;;;;;;20816465;28;19916;-76
2023/08/15 22:41:12;;;;;;;;;;;19.60;99.90;;;;;;20843552;28;19971;-76
2023/08/15 22:51:12;;;;;;;;;;;19.60;99.90;;;;;;20836301;28;19917;-77
2023/08/15 23:01:13;;;;;;;;;;;19.60;99.90;;;;;;20849921;28;19920;-76
2023/08/15 23:11:14;;;;;;;;;;;19.40;99.90;;;;;;20836593;28;19917;-76
2023/08/15 23:21:14;;;;;;;;;;;19.10;99.90;;;;;;20848642;28;20005;-76
2023/08/15 23:31:15;;;;;;;;;;;19.10;99.90;;;;;;20845043;28;20355;-76
2023/08/15 23:41:16;;;;;;;;;;;19.20;99.90;;;;;;20837459;28;19917;-76
2023/08/15 23:51:17;;;;;;;;;;;19.30;99.90;;;;;;20847719;28;19924;-77
